createdAt,value
2022-07-29T03:59:40.897Z,16.82
2022-07-29T04:01:55.276Z,16.870001
2022-07-29T04:04:09.974Z,16.98
2022-07-29T04:06:24.782Z,17.15
2022-07-29T04:08:38.915Z,17.360001
2022-07-29T04:10:53.262Z,17.58
2022-07-29T04:13:07.646Z,17.790001
2022-07-29T04:15:22.043Z,17.959999
2022-07-29T04:17:39.388Z,18.120001
2022-07-29T04:19:53.860Z,18.26
2022-07-29T04:22:08.321Z,18.370001
2022-07-29T04:24:22.692Z,18.459999
2022-07-29T04:26:37.106Z,18.530001
2022-07-29T04:28:51.529Z,18.59
2022-07-29T04:31:05.992Z,18.629999
2022-07-29T04:33:20.310Z,18.67
2022-07-29T04:35:36.817Z,18.709999
2022-07-29T04:37:52.059Z,18.74
2022-07-29T04:40:06.433Z,18.780001
2022-07-29T04:42:27.653Z,18.82
2022-07-29T04:44:37.253Z,18.870001
2022-07-29T04:46:53.618Z,18.91
2022-07-29T04:49:08.074Z,18.969999
2022-07-29T04:51:22.346Z,19.059999
2022-07-29T04:53:36.816Z,19.15
2022-07-29T04:55:52.546Z,19.219999
2022-07-29T04:58:06.834Z,19.27
2022-07-29T05:00:21.215Z,19.299999
2022-07-29T05:02:38.579Z,19.309999
2022-07-29T05:04:52.989Z,19.33
2022-07-29T05:07:07.427Z,19.34
2022-07-29T05:09:21.783Z,19.35
2022-07-29T05:11:36.355Z,19.370001
2022-07-29T05:13:50.683Z,19.389999
2022-07-29T05:16:05.142Z,19.41
2022-07-29T05:18:19.728Z,19.440001
2022-07-29T05:20:35.039Z,19.459999
2022-07-29T05:22:49.452Z,19.48
2022-07-29T05:25:08.688Z,19.48
2022-07-29T05:27:19.698Z,19.49
2022-07-29T05:29:41.301Z,19.48
2022-07-29T05:31:51.250Z,19.48
2022-07-29T05:34:06.680Z,19.48
2022-07-29T05:36:22.067Z,19.48
2022-07-29T05:38:37.144Z,19.469999
2022-07-29T05:40:51.072Z,19.469999
2022-07-29T05:43:05.451Z,19.459999
2022-07-29T05:45:19.948Z,19.469999
2022-07-29T05:47:34.306Z,19.48
2022-07-29T05:49:48.784Z,19.49
2022-07-29T05:52:03.125Z,19.51
2022-07-29T05:54:18.850Z,19.52
2022-07-29T05:56:32.938Z,19.530001
2022-07-29T05:58:47.582Z,19.549999
2022-07-29T06:01:02.043Z,19.58
2022-07-29T06:03:17.353Z,19.58
2022-07-29T06:05:31.871Z,19.59
2022-07-29T06:07:49.558Z,19.610001
2022-07-29T06:10:01.581Z,19.620001
2022-07-29T06:12:15.955Z,19.629999
2022-07-29T06:14:30.375Z,19.639999
2022-07-29T06:16:44.861Z,19.65
2022-07-29T06:18:59.169Z,19.67
2022-07-29T06:21:13.630Z,19.700001
2022-07-29T06:23:28.105Z,19.74
2022-07-29T06:25:42.451Z,19.780001
2022-07-29T06:27:57.089Z,19.799999
2022-07-29T06:30:11.501Z,19.809999
2022-07-29T06:32:27.347Z,19.809999
2022-07-29T06:34:40.466Z,19.82
2022-07-29T06:36:56.805Z,19.84
2022-07-29T06:39:13.294Z,19.870001
2022-07-29T06:41:25.919Z,19.889999
2022-07-29T06:43:45.645Z,19.92
2022-07-29T06:45:57.848Z,19.99
2022-07-29T06:48:12.209Z,20.059999
2022-07-29T06:50:26.606Z,20.139999
2022-07-29T06:52:41.110Z,20.219999
2022-07-29T06:54:55.876Z,20.290001
2022-07-29T06:57:10.172Z,20.360001
2022-07-29T06:59:32.192Z,20.459999
2022-07-29T07:01:42.057Z,20.57
2022-07-29T07:03:56.387Z,20.66
2022-07-29T07:06:14.907Z,20.74
2022-07-29T07:08:25.242Z,20.84
2022-07-29T07:10:39.670Z,20.92
2022-07-29T07:12:54.255Z,21.02
2022-07-29T07:15:08.688Z,21.120001
2022-07-29T07:17:23.000Z,21.23
2022-07-29T07:19:37.429Z,21.33
2022-07-29T07:21:51.890Z,21.4
2022-07-29T07:24:06.178Z,21.459999
2022-07-29T07:26:20.640Z,21.549999
2022-07-29T07:28:34.996Z,21.639999
2022-07-29T07:30:49.429Z,21.709999
2022-07-29T07:33:03.797Z,21.780001
2022-07-29T07:35:18.201Z,21.84
2022-07-29T07:37:32.641Z,21.889999
2022-07-29T07:39:47.060Z,21.950001
2022-07-29T07:42:01.373Z,22.01
2022-07-29T07:44:16.267Z,22.07
2022-07-29T07:46:31.201Z,22.110001
2022-07-29T07:48:47.620Z,22.16
2022-07-29T07:51:01.996Z,22.200001
2022-07-29T07:53:16.350Z,22.219999
2022-07-29T07:55:53.352Z,22.23
2022-07-29T07:57:50.229Z,22.209999
2022-07-29T08:00:04.556Z,22.16
2022-07-29T08:02:19.158Z,22.110001
2022-07-29T08:04:33.466Z,22.059999
2022-07-29T08:06:47.838Z,22.01
2022-07-29T08:09:19.717Z,21.969999
2022-07-29T08:11:19.541Z,21.93
2022-07-29T08:13:34.181Z,21.9
2022-07-29T08:15:48.588Z,21.889999
2022-07-29T08:18:08.007Z,21.9
2022-07-29T08:20:18.309Z,21.9
2022-07-29T08:22:32.725Z,21.92
2022-07-29T08:24:47.109Z,21.969999
2022-07-29T08:27:02.457Z,22.030001
2022-07-29T08:29:20.269Z,22.129999
2022-07-29T08:31:34.392Z,22.25
2022-07-29T08:33:48.745Z,22.41
2022-07-29T08:36:03.237Z,22.58
2022-07-29T08:38:17.628Z,22.709999
2022-07-29T08:40:32.731Z,22.799999
2022-07-29T08:42:46.487Z,22.860001
2022-07-29T08:45:00.871Z,22.91
2022-07-29T08:47:15.305Z,22.950001
2022-07-29T08:49:29.776Z,22.940001
2022-07-29T08:51:46.579Z,22.91
2022-07-29T08:53:59.539Z,22.879999
2022-07-29T08:56:13.915Z,22.870001
2022-07-29T08:58:28.343Z,22.860001
2022-07-29T09:00:45.878Z,22.83
2022-07-29T09:03:00.200Z,22.76
2022-07-29T09:05:15.674Z,22.719999
2022-07-29T09:07:34.565Z,22.700001
2022-07-29T09:09:44.419Z,22.74
2022-07-29T09:11:58.886Z,22.82
2022-07-29T09:14:13.221Z,22.92
2022-07-29T09:16:51.202Z,23.02
2022-07-29T09:18:45.040Z,23.110001
2022-07-29T09:20:59.451Z,23.17
2022-07-29T09:23:13.868Z,23.219999
2022-07-29T09:25:31.268Z,23.23
2022-07-29T09:27:45.799Z,23.23
2022-07-29T09:30:00.149Z,23.290001
2022-07-29T09:32:14.473Z,23.370001
2022-07-29T09:34:28.916Z,23.469999
2022-07-29T09:36:43.590Z,23.559999
2022-07-29T09:38:58.890Z,23.66
2022-07-29T09:41:13.229Z,23.77
2022-07-29T09:43:27.722Z,23.870001
2022-07-29T09:45:42.147Z,23.98
2022-07-29T09:47:57.020Z,24.120001
2022-07-29T09:50:11.373Z,24.25
2022-07-29T09:52:26.753Z,24.33
2022-07-29T09:54:41.303Z,24.33
2022-07-29T09:56:56.052Z,24.299999
2022-07-29T09:59:10.259Z,24.26
2022-07-29T10:01:25.250Z,24.26
2022-07-29T10:03:39.663Z,24.33
2022-07-29T10:05:54.012Z,24.440001
2022-07-29T10:08:08.466Z,24.58
2022-07-29T10:10:22.885Z,24.700001
2022-07-29T10:12:37.344Z,24.799999
2022-07-29T10:14:51.802Z,24.889999
2022-07-29T10:17:06.261Z,24.99
2022-07-29T10:19:20.594Z,25.120001
2022-07-29T10:21:36.544Z,25.23
2022-07-29T10:23:49.441Z,25.309999
2022-07-29T10:26:06.858Z,25.35
2022-07-29T10:28:21.236Z,25.379999
2022-07-29T10:30:36.328Z,25.440001
2022-07-29T10:32:54.028Z,25.51
2022-07-29T10:35:05.195Z,25.559999
2022-07-29T10:37:19.683Z,25.620001
2022-07-29T10:39:41.976Z,25.68
2022-07-29T10:41:52.432Z,25.75
2022-07-29T10:44:06.938Z,25.84
2022-07-29T10:46:24.862Z,25.940001
2022-07-29T10:48:38.755Z,26.01
2022-07-29T10:50:53.126Z,26.08
2022-07-29T10:53:08.794Z,26.17
2022-07-29T10:55:22.973Z,26.26
2022-07-29T10:57:52.795Z,26.32
2022-07-29T10:59:55.780Z,26.4
2022-07-29T11:02:28.146Z,26.469999
2022-07-29T11:04:27.421Z,26.51
2022-07-29T11:06:42.794Z,26.549999
2022-07-29T11:08:57.340Z,26.610001
2022-07-29T11:11:12.866Z,26.690001
2022-07-29T11:13:29.217Z,26.790001
2022-07-29T11:15:46.717Z,26.85
2022-07-29T11:18:01.146Z,26.860001
2022-07-29T11:20:15.623Z,26.860001
2022-07-29T11:22:30.980Z,26.870001
2022-07-29T11:24:49.424Z,26.860001
2022-07-29T11:27:03.016Z,26.84
2022-07-29T11:29:18.152Z,26.83
2022-07-29T11:31:32.663Z,26.83
2022-07-29T11:36:04.494Z,26.84
2022-07-29T11:38:21.780Z,26.879999
2022-07-29T11:40:38.177Z,26.950001
2022-07-29T11:42:53.598Z,27.02
2022-07-29T11:45:08.517Z,27.120001
2022-07-29T11:47:25.357Z,27.24
2022-07-29T11:49:42.666Z,27.370001
2022-07-29T11:52:00.355Z,27.49
2022-07-29T11:54:17.364Z,27.59
2022-07-29T11:56:34.833Z,27.65
2022-07-29T11:58:50.255Z,27.700001
2022-07-29T12:01:05.626Z,27.790001
2022-07-29T12:03:20.233Z,27.879999
2022-07-29T12:05:37.523Z,27.969999
2022-07-29T12:07:03.012Z,26.83
2022-07-29T12:07:54.832Z,28.07
2022-07-29T12:10:11.414Z,28.200001
2022-07-29T12:12:26.855Z,28.32
2022-07-29T12:14:41.541Z,28.42
2022-07-29T12:16:55.905Z,28.52
2022-07-29T12:19:10.185Z,28.610001
2022-07-29T12:21:25.650Z,28.73
2022-07-29T12:23:40.091Z,28.870001
2022-07-29T12:25:54.610Z,29.030001
2022-07-29T12:28:08.914Z,29.190001
2022-07-29T12:30:26.702Z,29.34
2022-07-29T12:32:41.008Z,29.49
2022-07-29T12:34:56.456Z,29.629999
2022-07-29T12:37:10.808Z,29.76
2022-07-29T12:39:25.234Z,29.879999
2022-07-29T12:41:39.743Z,29.98
2022-07-29T12:43:54.115Z,30.059999
2022-07-29T12:46:08.541Z,30.09
2022-07-29T12:48:22.957Z,30.120001
2022-07-29T12:50:37.641Z,30.18
2022-07-29T12:52:52.030Z,30.25
2022-07-29T12:55:06.392Z,30.34
2022-07-29T12:57:20.767Z,30.43
2022-07-29T12:59:35.213Z,30.530001
2022-07-29T13:01:49.705Z,30.690001
2022-07-29T13:04:04.187Z,30.870001
2022-07-29T13:06:18.501Z,30.969999
2022-07-29T13:08:32.908Z,30.91
2022-07-29T13:10:48.286Z,30.719999
2022-07-29T13:13:02.638Z,30.530001
2022-07-29T13:15:17.079Z,30.4
2022-07-29T13:17:32.624Z,30.290001
2022-07-29T13:19:48.241Z,30.1
2022-07-29T13:22:02.642Z,29.860001
2022-07-29T13:24:19.860Z,29.629999
2022-07-29T13:26:31.493Z,29.43
2022-07-29T13:28:48.062Z,29.290001
2022-07-29T13:31:02.443Z,29.16
2022-07-29T13:33:16.815Z,29.120001
2022-07-29T13:35:31.251Z,29.219999
2022-07-29T13:37:47.685Z,29.280001
2022-07-29T13:40:02.157Z,29.299999
2022-07-29T13:42:16.591Z,29.469999
2022-07-29T13:44:30.962Z,29.780001
2022-07-29T13:46:45.526Z,29.940001
2022-07-29T13:48:59.959Z,29.98
2022-07-29T13:51:14.335Z,30.07
2022-07-29T13:53:29.697Z,30.120001
2022-07-29T13:55:45.086Z,30.120001
2022-07-29T13:57:59.487Z,30.09
2022-07-29T14:00:13.942Z,30
2022-07-29T14:02:28.353Z,30
2022-07-29T14:04:42.876Z,30.110001
2022-07-29T14:06:58.491Z,30.309999
2022-07-29T14:09:13.682Z,30.530001
2022-07-29T14:11:28.104Z,30.690001
2022-07-29T14:13:42.705Z,30.84
2022-07-29T14:15:57.160Z,31
2022-07-29T14:18:11.668Z,31.17
2022-07-29T14:20:26.009Z,31.33
2022-07-29T14:22:42.331Z,31.43
2022-07-29T14:24:56.376Z,31.549999
2022-07-29T14:27:13.423Z,31.549999
2022-07-29T14:29:35.321Z,31.559999
2022-07-29T14:31:46.274Z,31.709999
2022-07-29T14:34:02.791Z,31.860001
2022-07-29T14:36:15.157Z,31.91
2022-07-29T14:38:30.470Z,31.860001
2022-07-29T14:40:44.855Z,31.76
2022-07-29T14:43:00.290Z,31.67
2022-07-29T14:45:14.759Z,31.610001
2022-07-29T14:47:29.120Z,31.74
2022-07-29T14:49:43.848Z,31.940001
2022-07-29T14:51:58.375Z,32.139999
2022-07-29T14:54:12.579Z,32.330002
2022-07-29T14:56:36.825Z,32.509998
2022-07-29T14:58:49.057Z,32.650002
2022-07-29T15:01:01.091Z,32.650002
2022-07-29T15:03:23.052Z,32.639999
2022-07-29T15:05:33.058Z,32.580002
2022-07-29T15:07:47.316Z,32.369999
2022-07-29T15:10:01.767Z,32.119999
2022-07-29T15:12:17.171Z,31.82
2022-07-29T15:14:31.552Z,31.52
2022-07-29T15:16:46.761Z,31.32
2022-07-29T15:19:01.479Z,31.299999
2022-07-29T15:21:15.649Z,31.469999
2022-07-29T15:23:30.067Z,31.6
2022-07-29T15:25:44.490Z,31.549999
2022-07-29T15:28:01.429Z,31.4
2022-07-29T15:30:14.436Z,31.389999
2022-07-29T15:32:30.680Z,31.4
2022-07-29T15:34:45.175Z,31.33
2022-07-29T15:36:59.906Z,31.200001
2022-07-29T15:39:15.150Z,31.059999
2022-07-29T15:41:29.644Z,30.940001
2022-07-29T15:43:44.214Z,30.74
2022-07-29T15:45:58.564Z,30.530001
2022-07-29T15:48:14.798Z,30.34
2022-07-29T15:50:28.375Z,30.190001
2022-07-29T15:52:43.717Z,30.110001
2022-07-29T15:54:58.109Z,30.01
2022-07-29T15:57:12.557Z,29.93
2022-07-29T15:59:26.885Z,29.809999
2022-07-29T16:01:42.403Z,29.68
2022-07-29T16:03:55.949Z,29.65
2022-07-29T16:06:10.270Z,29.75
2022-07-29T16:08:24.645Z,29.73
2022-07-29T16:10:39.001Z,29.610001
2022-07-29T16:12:53.448Z,29.459999
2022-07-29T16:15:10.117Z,29.299999
2022-07-29T16:17:22.130Z,29.129999
2022-07-29T16:19:36.557Z,28.969999
2022-07-29T16:21:50.897Z,28.809999
2022-07-29T16:24:08.228Z,28.65
2022-07-29T16:26:22.664Z,28.49
2022-07-29T16:28:37.001Z,28.370001
2022-07-29T16:30:51.403Z,28.360001
2022-07-29T16:33:08.316Z,28.5
2022-07-29T16:35:20.366Z,28.75
2022-07-29T16:37:37.715Z,29.059999
2022-07-29T16:39:52.409Z,29.379999
2022-07-29T16:42:06.664Z,29.610001
2022-07-29T16:44:25.103Z,29.780001
2022-07-29T16:46:40.264Z,29.91
2022-07-29T16:48:53.829Z,30.040001
2022-07-29T16:51:08.154Z,30.17
2022-07-29T16:53:26.152Z,30.190001
2022-07-29T16:55:38.873Z,30.1
2022-07-29T16:57:53.231Z,30.09
2022-07-29T17:00:07.605Z,30.139999
2022-07-29T17:02:22.095Z,30.209999
2022-07-29T17:04:36.435Z,30.280001
2022-07-29T17:06:50.808Z,30.25
2022-07-29T17:09:05.284Z,30.08
2022-07-29T17:11:19.858Z,29.83
2022-07-29T17:13:37.166Z,29.59
2022-07-29T17:15:51.649Z,29.440001
2022-07-29T17:18:11.501Z,29.26
2022-07-29T17:20:23.381Z,29.1
2022-07-29T17:22:38.049Z,29.07
2022-07-29T17:24:52.269Z,29.049999
2022-07-29T17:27:06.699Z,28.93
2022-07-29T17:29:21.165Z,28.889999
2022-07-29T17:31:35.678Z,28.870001
2022-07-29T17:33:50.107Z,28.780001
2022-07-29T17:36:07.429Z,28.66
2022-07-29T17:38:21.879Z,28.540001
2022-07-29T17:40:36.306Z,28.42
2022-07-29T17:42:52.361Z,28.290001
2022-07-29T17:45:07.058Z,28.17
2022-07-29T17:47:21.572Z,28.049999
2022-07-29T17:49:36.073Z,27.950001
2022-07-29T17:51:50.393Z,27.860001
2022-07-29T17:54:07.807Z,27.76
2022-07-29T17:56:23.186Z,27.67
2022-07-29T17:58:37.592Z,27.6
2022-07-29T18:00:52.633Z,27.549999
2022-07-29T18:03:07.005Z,27.51
2022-07-29T18:05:21.406Z,27.450001
2022-07-29T18:07:36.023Z,27.4
2022-07-29T18:09:50.406Z,27.33
2022-07-29T18:12:07.862Z,27.24
2022-07-29T18:14:22.266Z,27.129999
2022-07-29T18:16:36.770Z,27.059999
2022-07-29T18:18:51.330Z,26.99
2022-07-29T18:21:05.621Z,26.93
2022-07-29T18:23:19.993Z,26.879999
2022-07-29T18:25:34.455Z,26.83
2022-07-29T18:27:48.834Z,26.790001
2022-07-29T18:30:10.777Z,26.77
2022-07-29T18:32:28.709Z,26.77
2022-07-29T18:34:41.303Z,26.74
2022-07-29T18:36:55.916Z,26.700001
2022-07-29T18:39:10.223Z,26.68
2022-07-29T18:41:27.572Z,26.65
2022-07-29T18:43:41.995Z,26.629999
2022-07-29T18:45:57.447Z,26.6
2022-07-29T18:48:13.946Z,26.57
2022-07-29T18:50:29.494Z,26.530001
2022-07-29T18:52:42.898Z,26.48
2022-07-29T18:54:57.232Z,26.4
2022-07-29T18:57:53.481Z,26.32
2022-07-29T18:59:29.144Z,26.25
2022-07-29T19:01:43.599Z,26.17
2022-07-29T19:03:57.950Z,26.09
2022-07-29T19:06:12.369Z,26
2022-07-29T19:08:27.921Z,25.91
2022-07-29T19:10:42.298Z,25.84
2022-07-29T19:12:56.724Z,25.780001
2022-07-29T19:15:11.166Z,25.719999
2022-07-29T19:17:27.502Z,25.68
2022-07-29T19:19:41.976Z,25.65
2022-07-29T19:21:56.322Z,25.59
2022-07-29T19:24:15.069Z,25.5
2022-07-29T19:26:27.741Z,25.4
2022-07-29T19:28:42.025Z,25.26
2022-07-29T19:30:59.873Z,25.1
2022-07-29T19:33:14.694Z,24.93
2022-07-29T19:35:29.121Z,24.77
2022-07-29T19:37:43.761Z,24.629999
2022-07-29T19:39:58.180Z,24.49
2022-07-29T19:42:12.608Z,24.370001
2022-07-29T19:44:26.991Z,24.26
2022-07-29T19:46:41.588Z,24.15
2022-07-29T19:48:57.432Z,24.07
2022-07-29T19:51:11.606Z,23.99
2022-07-29T19:53:25.977Z,23.91
2022-07-29T19:55:41.434Z,23.82
2022-07-29T19:57:55.740Z,23.74
2022-07-29T20:00:12.383Z,23.66
2022-07-29T20:02:28.905Z,23.57
2022-07-29T20:04:43.298Z,23.49
2022-07-29T20:06:57.841Z,23.41
2022-07-29T20:09:16.899Z,23.35
2022-07-29T20:11:28.614Z,23.290001
2022-07-29T20:13:44.990Z,23.25
2022-07-29T20:15:59.620Z,23.209999
2022-07-29T20:18:14.952Z,23.18
2022-07-29T20:20:29.335Z,23.15
2022-07-29T20:22:43.752Z,23.120001
2022-07-29T20:24:58.122Z,23.08
2022-07-29T20:27:13.536Z,23.049999
2022-07-29T20:29:26.990Z,23.02
2022-07-29T20:31:41.324Z,23
2022-07-29T20:33:58.734Z,22.969999
2022-07-29T20:36:14.234Z,22.950001
2022-07-29T20:38:28.582Z,22.940001
2022-07-29T20:40:43.234Z,22.93
2022-07-29T20:42:57.463Z,22.93
2022-07-29T20:45:11.874Z,22.93
2022-07-29T20:47:26.362Z,22.940001
2022-07-29T20:49:40.776Z,22.950001
2022-07-29T20:51:55.106Z,22.950001
2022-07-29T20:54:09.897Z,22.950001
2022-07-29T20:56:24.203Z,22.940001
2022-07-29T20:58:38.984Z,22.93
2022-07-29T21:00:53.333Z,22.93
2022-07-29T21:03:10.156Z,22.93
2022-07-29T21:05:24.620Z,22.93
2022-07-29T21:07:38.940Z,22.91
2022-07-29T21:09:54.043Z,22.889999
2022-07-29T21:12:08.456Z,22.879999
2022-07-29T21:14:22.775Z,22.870001
2022-07-29T21:16:37.190Z,22.860001
2022-07-29T21:18:51.553Z,22.84
2022-07-29T21:21:05.986Z,22.82
2022-07-29T21:23:20.929Z,22.799999
2022-07-29T21:25:35.532Z,22.780001
2022-07-29T21:27:49.930Z,22.76
